Time;durP1;ratioP1;P1;durP2;ratioP2;P2;SDS_P1;SDS_P2;PMS_P1;PMS_P2;Temp;Humidity;BMP_temperature;BMP_pressure;BME280_temperature;BME280_humidity;BME280_pressure;Samples;Min_cycle;Max_cycle;Signal;HPM_P1;HPM_P2
2021/12/09 00:00:01;;;;;;;36.30;15.10;;;;;;;-4.50;93.97;98544.25;103635;1317;24199;-24
2021/12/09 00:02:30;;;;;;;35.00;14.70;;;;;;;-4.46;93.95;98534.73;103599;1316;24275;-27
2021/12/09 00:04:57;;;;;;;45.90;18.00;;;;;;;-4.43;93.86;98539.55;103762;1313;24181;-24
2021/12/09 00:07:24;;;;;;;47.80;15.60;;;;;;;-4.41;93.43;98534.09;103763;1320;22491;-29
2021/12/09 00:09:50;;;;;;;42.30;18.50;;;;;;;-4.42;93.52;98530.19;103657;1317;25935;-28
2021/12/09 00:12:17;;;;;;;49.30;20.60;;;;;;;-4.46;93.45;98530.13;103903;1317;22464;-24
2021/12/09 00:14:43;;;;;;;42.90;16.60;;;;;;;-4.46;93.42;98528.62;103489;1317;22717;-24
2021/12/09 00:17:10;;;;;;;65.60;23.00;;;;;;;-4.46;93.87;98529.63;103524;1311;24095;-28
2021/12/09 00:19:36;;;;;;;56.60;20.10;;;;;;;-4.45;93.67;98532.52;103843;1316;22722;-24
2021/12/09 00:22:04;;;;;;;64.60;24.90;;;;;;;-4.44;93.41;98535.80;103779;1317;22466;-24
2021/12/09 00:24:30;;;;;;;40.00;16.00;;;;;;;-4.46;93.58;98535.42;103760;1317;22778;-24
2021/12/09 00:26:56;;;;;;;46.70;18.70;;;;;;;-4.47;93.70;98532.85;103618;1313;24225;-24
2021/12/09 00:29:22;;;;;;;59.90;24.60;;;;;;;-4.48;93.70;98532.03;103690;1317;24223;-28
2021/12/09 00:31:48;;;;;;;58.10;20.00;;;;;;;-4.46;93.84;98532.98;103820;1317;24124;-28
2021/12/09 00:34:15;;;;;;;58.40;20.00;;;;;;;-4.46;93.71;98530.88;103709;1317;24246;-25
2021/12/09 00:36:54;;;;;;;58.50;21.60;;;;;;;-4.48;93.60;98526.79;104003;1317;22495;-28
2021/12/09 00:39:20;;;;;;;60.80;21.40;;;;;;;-4.49;93.50;98533.23;103692;1317;24277;-28
2021/12/09 00:41:46;;;;;;;54.20;20.40;;;;;;;-4.50;93.44;98532.71;103890;1320;24174;-27
2021/12/09 00:44:12;;;;;;;161.90;42.10;;;;;;;-4.48;93.63;98529.60;103903;1318;24189;-24
2021/12/09 00:46:38;;;;;;;98.80;35.10;;;;;;;-4.45;93.19;98525.36;103744;1317;24279;-28
2021/12/09 00:49:04;;;;;;;74.00;30.10;;;;;;;-4.45;92.74;98515.59;103714;1317;24139;-28
2021/12/09 00:51:30;;;;;;;53.90;19.10;;;;;;;-4.51;92.69;98514.83;103725;1317;24236;-24
2021/12/09 00:53:56;;;;;;;57.30;24.50;;;;;;;-4.51;92.81;98507.52;103741;1317;24159;-24
2021/12/09 00:56:22;;;;;;;53.20;19.70;;;;;;;-4.51;92.52;98504.55;103751;1317;24233;-27
2021/12/09 00:58:49;;;;;;;61.60;20.50;;;;;;;-4.55;92.22;98497.04;103800;1314;24200;-24
2021/12/09 01:01:15;;;;;;;73.80;22.50;;;;;;;-4.60;92.49;98499.67;103911;1313;22465;-29
2021/12/09 01:03:41;;;;;;;64.60;24.20;;;;;;;-4.59;92.49;98497.14;103821;1317;22466;-29
2021/12/09 01:06:07;;;;;;;72.90;26.50;;;;;;;-4.60;92.78;98495.61;103837;1317;22712;-24
2021/12/09 01:08:32;;;;;;;73.90;23.50;;;;;;;-4.57;92.88;98497.88;103647;1310;24245;-24
2021/12/09 01:10:58;;;;;;;79.40;31.10;;;;;;;-4.54;93.07;98502.66;103771;1317;22541;-28
2021/12/09 01:13:24;;;;;;;48.30;22.60;;;;;;;-4.51;92.84;98497.72;103802;1320;22811;-28
2021/12/09 01:15:50;;;;;;;49.60;22.00;;;;;;;-4.53;92.82;98494.00;103834;1317;23020;-28
2021/12/09 01:18:16;;;;;;;39.90;15.10;;;;;;;-4.50;92.57;98492.89;103490;1317;24139;-25
2021/12/09 01:20:42;;;;;;;52.70;20.10;;;;;;;-4.53;92.35;98492.51;103663;1311;24296;-24
2021/12/09 01:23:08;;;;;;;36.80;16.60;;;;;;;-4.47;92.23;98492.02;103705;1316;24375;-24
2021/12/09 01:25:37;;;;;;;51.30;19.20;;;;;;;-4.61;92.68;98491.19;103778;1318;24116;-24
2021/12/09 01:28:05;;;;;;;49.70;19.30;;;;;;;-4.60;92.81;98487.80;103442;1317;22597;-24
2021/12/09 01:30:31;;;;;;;37.30;15.70;;;;;;;-4.59;92.52;98486.83;103757;1317;22474;-28
2021/12/09 01:32:58;;;;;;;46.30;18.80;;;;;;;-4.59;92.82;98487.52;103639;1317;22727;-25
2021/12/09 01:35:27;;;;;;;64.60;20.40;;;;;;;-4.58;93.06;98492.48;103623;1314;24106;-28
2021/12/09 01:37:57;;;;;;;56.90;21.00;;;;;;;-4.55;93.04;98490.38;103650;1317;24101;-24
2021/12/09 01:40:23;;;;;;;53.20;25.10;;;;;;;-4.51;92.93;98482.90;103778;1320;22791;-29
2021/12/09 01:42:49;;;;;;;43.70;16.70;;;;;;;-4.48;92.69;98482.13;103742;1317;22586;-34
2021/12/09 01:45:15;;;;;;;38.50;15.30;;;;;;;-4.51;92.75;98482.13;103768;1317;24139;-28
2021/12/09 01:47:41;;;;;;;51.70;23.40;;;;;;;-4.52;92.59;98478.20;103738;1317;22461;-28
2021/12/09 01:50:08;;;;;;;40.50;16.80;;;;;;;-4.58;92.74;98472.06;103442;1313;24263;-29
2021/12/09 01:52:34;;;;;;;60.70;26.60;;;;;;;-4.56;92.89;98462.69;103850;1318;24255;-24
2021/12/09 01:55:00;;;;;;;58.10;23.40;;;;;;;-4.57;93.10;98469.73;103661;1313;24277;-28
2021/12/09 01:57:26;;;;;;;58.90;27.80;;;;;;;-4.60;93.21;98471.70;103832;1317;22895;-28
2021/12/09 01:59:51;;;;;;;57.90;20.70;;;;;;;-4.61;93.39;98475.34;103707;1317;22469;-24
2021/12/09 02:02:17;;;;;;;62.40;20.50;;;;;;;-4.59;93.55;98472.52;103794;1317;22462;-28
2021/12/09 02:04:43;;;;;;;47.80;18.80;;;;;;;-4.58;93.36;98476.30;103750;1317;22911;-24
2021/12/09 02:07:10;;;;;;;47.20;20.30;;;;;;;-4.57;93.40;98481.25;103626;1313;22739;-28
2021/12/09 02:09:35;;;;;;;44.30;16.50;;;;;;;-4.59;93.50;98484.79;103592;1311;24148;-24
2021/12/09 02:12:03;;;;;;;48.10;19.60;;;;;;;-4.61;93.74;98487.89;103813;1317;24236;-24
2021/12/09 02:14:29;;;;;;;44.40;18.10;;;;;;;-4.59;93.64;98484.90;103745;1311;22729;-28
2021/12/09 02:16:55;;;;;;;71.10;21.90;;;;;;;-4.56;93.85;98483.60;103783;1313;22590;-28
2021/12/09 02:19:21;;;;;;;64.00;19.90;;;;;;;-4.53;93.49;98484.45;103816;1311;24105;-28
2021/12/09 02:21:47;;;;;;;47.00;17.00;;;;;;;-4.50;93.54;98486.48;103784;1317;24384;-28
2021/12/09 02:24:15;;;;;;;41.90;16.40;;;;;;;-4.52;93.51;98492.71;103800;1317;24154;-29
2021/12/09 02:26:42;;;;;;;44.60;15.80;;;;;;;-4.50;93.80;98489.61;103858;1317;24428;-29
2021/12/09 02:29:10;;;;;;;66.70;24.80;;;;;;;-4.48;93.52;98485.61;103897;1317;22479;-29
2021/12/09 02:31:36;;;;;;;45.20;18.00;;;;;;;-4.47;93.54;98483.21;103754;1317;22443;-24
2021/12/09 02:34:02;;;;;;;43.40;16.90;;;;;;;-4.45;93.72;98479.40;103768;1320;22957;-28
2021/12/09 02:36:30;;;;;;;35.90;14.70;;;;;;;-4.47;93.33;98485.83;103858;1317;24170;-28
2021/12/09 02:38:56;;;;;;;40.70;18.50;;;;;;;-4.46;93.85;98485.27;103780;1317;22652;-28
2021/12/09 02:41:24;;;;;;;42.10;17.20;;;;;;;-4.43;93.56;98485.75;103756;1317;22454;-24
2021/12/09 02:43:54;;;;;;;43.10;17.10;;;;;;;-4.41;93.51;98484.02;103661;1313;22727;-29
2021/12/09 02:46:19;;;;;;;44.50;15.80;;;;;;;-4.41;93.46;98486.27;103737;1317;24305;-24
2021/12/09 02:48:45;;;;;;;63.80;21.60;;;;;;;-4.37;93.31;98479.66;103700;1311;22560;-29
2021/12/09 02:51:11;;;;;;;49.30;20.20;;;;;;;-4.36;93.41;98487.81;103682;1317;24141;-24
2021/12/09 02:53:37;;;;;;;63.20;18.00;;;;;;;-4.35;93.27;98486.48;103821;1313;22482;-28
2021/12/09 02:56:03;;;;;;;43.60;18.00;;;;;;;-4.36;93.31;98490.38;103782;1317;24260;-24
2021/12/09 02:58:29;;;;;;;64.00;22.40;;;;;;;-4.33;93.42;98484.73;103800;1317;25268;-24
2021/12/09 03:00:58;;;;;;;49.00;16.90;;;;;;;-4.31;93.28;98481.92;103759;1312;23352;-28
2021/12/09 03:03:24;;;;;;;50.60;17.60;;;;;;;-4.34;93.39;98489.48;103787;1316;22587;-24
2021/12/09 03:05:53;;;;;;;62.20;21.10;;;;;;;-4.32;93.55;98488.48;103517;1313;22461;-24
2021/12/09 03:08:24;;;;;;;50.60;20.30;;;;;;;-4.25;93.24;98488.80;103666;1316;22634;-29
2021/12/09 03:10:50;;;;;;;62.00;22.40;;;;;;;-4.25;93.34;98487.36;103711;1320;24258;-25
2021/12/09 03:13:17;;;;;;;61.40;27.90;;;;;;;-4.23;93.24;98487.39;103681;1313;24213;-29
2021/12/09 03:15:43;;;;;;;44.50;16.20;;;;;;;-4.24;93.31;98493.25;103793;1311;22492;-24
2021/12/09 03:18:08;;;;;;;55.70;22.10;;;;;;;-4.21;93.20;98492.49;103694;1317;24407;-25
2021/12/09 03:20:34;;;;;;;67.40;27.30;;;;;;;-4.18;93.10;98482.80;103836;1320;22455;-25
2021/12/09 03:23:00;;;;;;;43.10;14.60;;;;;;;-4.20;93.24;98492.08;103991;1311;24110;-24
2021/12/09 03:25:26;;;;;;;61.60;22.10;;;;;;;-4.21;93.33;98490.89;103678;1317;22816;-29
2021/12/09 03:27:52;;;;;;;70.50;28.80;;;;;;;-4.11;92.90;98481.20;103774;1317;22735;-28
2021/12/09 03:30:18;;;;;;;58.20;18.90;;;;;;;-4.09;92.68;98472.83;103711;1317;24320;-24
2021/12/09 03:32:44;;;;;;;58.00;22.80;;;;;;;-4.15;92.73;98476.61;103564;1317;24059;-24
2021/12/09 03:35:11;;;;;;;43.40;17.60;;;;;;;-4.07;92.86;98474.77;103786;1316;22463;-28
2021/12/09 03:37:38;;;;;;;55.80;20.60;;;;;;;-4.06;92.71;98470.45;103791;1317;22838;-28
2021/12/09 03:40:06;;;;;;;50.00;17.40;;;;;;;-4.02;92.44;98477.95;103715;1316;22463;-29
2021/12/09 03:42:32;;;;;;;74.80;23.00;;;;;;;-4.00;92.55;98482.58;103814;1317;22465;-28
2021/12/09 03:44:58;;;;;;;52.30;19.30;;;;;;;-4.00;92.30;98477.86;103609;1317;22864;-24
2021/12/09 03:47:25;;;;;;;58.10;19.90;;;;;;;-4.04;92.55;98482.65;103552;1311;24296;-28
2021/12/09 03:49:51;;;;;;;71.30;23.60;;;;;;;-4.03;92.48;98490.78;103939;1318;24157;-24
2021/12/09 03:52:17;;;;;;;79.50;27.20;;;;;;;-4.00;92.66;98490.42;104013;1317;22473;-28
2021/12/09 03:54:43;;;;;;;108.70;34.60;;;;;;;-3.96;92.45;98489.07;103714;1310;22467;-28
2021/12/09 03:57:09;;;;;;;127.00;40.30;;;;;;;-4.00;92.44;98492.13;103698;1317;22564;-28
2021/12/09 03:59:35;;;;;;;123.60;45.60;;;;;;;-3.97;92.72;98486.49;103274;1314;707084;-28
2021/12/09 04:02:01;;;;;;;61.70;25.70;;;;;;;-3.90;92.30;98481.84;103750;1317;22464;-27
2021/12/09 04:04:27;;;;;;;72.30;30.70;;;;;;;-3.88;92.19;98480.70;103920;1317;24188;-24
2021/12/09 04:06:53;;;;;;;62.00;18.20;;;;;;;-3.89;91.94;98479.91;103733;1317;24348;-28
2021/12/09 04:09:19;;;;;;;77.40;24.40;;;;;;;-3.94;91.90;98492.17;103749;1317;24205;-28
2021/12/09 04:11:45;;;;;;;79.60;32.70;;;;;;;-3.89;91.74;98490.55;103731;1318;24147;-24
2021/12/09 04:14:11;;;;;;;75.50;23.60;;;;;;;-3.90;91.78;98490.08;103754;1317;22560;-29
2021/12/09 04:16:37;;;;;;;87.30;37.80;;;;;;;-3.90;91.88;98485.34;103652;1317;22466;-28
2021/12/09 04:19:04;;;;;;;73.30;24.10;;;;;;;-3.86;92.18;98486.30;103712;1310;22723;-25
2021/12/09 04:21:30;;;;;;;64.90;24.00;;;;;;;-3.87;92.12;98482.85;103760;1317;24280;-28
2021/12/09 04:23:57;;;;;;;54.20;21.60;;;;;;;-3.84;91.65;98480.51;103894;1311;22468;-28
2021/12/09 04:26:23;;;;;;;74.40;24.30;;;;;;;-3.84;91.63;98485.25;103555;1317;24338;-26
2021/12/09 04:28:48;;;;;;;73.70;28.50;;;;;;;-3.82;91.72;98488.71;103570;1317;24267;-29
2021/12/09 04:31:15;;;;;;;88.40;23.70;;;;;;;-3.82;91.61;98491.55;103874;1317;22467;-28
2021/12/09 04:33:42;;;;;;;58.90;23.20;;;;;;;-3.81;91.79;98493.04;103696;1314;23734;-30
2021/12/09 04:36:08;;;;;;;89.80;29.10;;;;;;;-3.73;92.02;98494.33;103763;1318;23863;-24
2021/12/09 04:38:34;;;;;;;70.90;29.50;;;;;;;-3.78;92.03;98498.16;103460;1317;23869;-24
2021/12/09 04:41:00;;;;;;;63.10;20.50;;;;;;;-3.79;92.17;98502.63;103778;1316;22784;-29
2021/12/09 04:43:26;;;;;;;62.80;23.10;;;;;;;-3.77;92.00;98499.15;103762;1317;22726;-29
2021/12/09 04:45:51;;;;;;;90.80;37.00;;;;;;;-3.75;91.66;98493.01;103782;1317;22722;-28
2021/12/09 04:48:17;;;;;;;55.80;19.40;;;;;;;-3.82;91.66;98494.30;103516;1317;25899;-28
2021/12/09 04:50:43;;;;;;;87.30;32.70;;;;;;;-3.81;91.66;98492.11;103611;1316;24152;-24
2021/12/09 04:53:10;;;;;;;68.40;32.30;;;;;;;-3.81;91.73;98490.92;103579;1312;22439;-28
2021/12/09 04:55:36;;;;;;;81.60;31.00;;;;;;;-3.80;91.64;98485.55;103493;1316;22453;-24
2021/12/09 04:58:02;;;;;;;44.80;18.00;;;;;;;-3.83;91.99;98482.83;103743;1317;24130;-28
2021/12/09 05:00:29;;;;;;;47.80;22.50;;;;;;;-3.83;91.95;98492.98;103707;1314;24157;-29
2021/12/09 05:05:24;;;;;;;62.00;27.40;;;;;;;-3.76;91.78;98490.69;103847;1317;22442;-24
2021/12/09 05:07:50;;;;;;;41.20;15.10;;;;;;;-3.79;91.56;98490.97;103859;1317;22487;-27
2021/12/09 05:10:16;;;;;;;66.40;20.30;;;;;;;-3.83;91.99;98495.07;103878;1317;22586;-24
2021/12/09 05:12:41;;;;;;;57.30;21.40;;;;;;;-3.83;92.03;98497.39;103861;1310;24322;-28
2021/12/09 05:15:08;;;;;;;61.90;23.30;;;;;;;-3.83;92.45;98502.30;103585;1318;24159;-28
2021/12/09 05:17:34;;;;;;;59.10;22.40;;;;;;;-3.77;92.29;98504.77;103702;1319;22865;-24
2021/12/09 05:20:00;;;;;;;40.40;15.10;;;;;;;-3.77;91.88;98507.23;103645;1318;24148;-24
2021/12/09 05:22:27;;;;;;;54.20;18.30;;;;;;;-3.79;92.13;98511.77;103822;1312;22776;-29
2021/12/09 05:24:54;;;;;;;41.60;19.70;;;;;;;-3.80;92.02;98505.16;103881;1318;22569;-24
2021/12/09 05:27:20;;;;;;;52.00;21.20;;;;;;;-3.78;92.27;98498.00;103788;1317;24090;-24
2021/12/09 05:29:54;;;;;;;37.10;17.50;;;;;;;-3.72;91.84;98497.93;103813;1311;24219;-28
2021/12/09 05:32:20;;;;;;;72.10;27.30;;;;;;;-3.74;91.87;98501.21;103660;1317;24209;-24
2021/12/09 05:34:48;;;;;;;62.20;24.90;;;;;;;-3.71;91.78;98496.63;103682;1317;24106;-29
2021/12/09 05:37:16;;;;;;;57.60;23.10;;;;;;;-3.74;91.92;98493.36;103828;1311;22548;-28
2021/12/09 05:39:42;;;;;;;48.00;17.90;;;;;;;-3.73;91.75;98495.73;104050;1311;22716;-29
2021/12/09 05:42:09;;;;;;;42.50;17.20;;;;;;;-3.78;91.94;98502.05;103529;1310;24269;-27
2021/12/09 05:44:34;;;;;;;42.00;16.30;;;;;;;-3.78;91.93;98501.16;103613;1317;22467;-24
2021/12/09 05:47:02;;;;;;;38.00;16.20;;;;;;;-3.76;91.73;98497.30;103767;1317;22741;-24
2021/12/09 05:49:29;;;;;;;46.50;19.50;;;;;;;-3.73;91.67;98487.45;103986;1317;24000;-24
2021/12/09 05:51:54;;;;;;;45.50;20.20;;;;;;;-3.74;91.52;98487.00;103764;1318;22453;-24
2021/12/09 05:54:20;;;;;;;293.40;86.20;;;;;;;-3.78;91.72;98485.05;103731;1320;22495;-25
2021/12/09 05:56:46;;;;;;;277.70;113.40;;;;;;;-3.80;91.75;98488.92;103795;1317;24263;-24
2021/12/09 05:59:15;;;;;;;72.80;32.90;;;;;;;-3.83;92.04;98490.86;103750;1316;22465;-24
2021/12/09 06:01:41;;;;;;;55.60;29.00;;;;;;;-3.84;92.16;98495.74;103750;1317;22555;-24
2021/12/09 06:04:08;;;;;;;77.40;34.00;;;;;;;-3.84;92.25;98497.14;103940;1317;22462;-24
2021/12/09 06:06:34;;;;;;;64.90;26.90;;;;;;;-3.81;92.24;98498.25;103735;1320;22465;-24
2021/12/09 06:08:59;;;;;;;67.10;29.40;;;;;;;-3.83;92.26;98497.03;103850;1317;24152;-29
2021/12/09 06:11:26;;;;;;;103.70;37.70;;;;;;;-3.83;92.52;98492.80;103752;1317;24235;-25
2021/12/09 06:13:53;;;;;;;69.40;27.10;;;;;;;-3.82;92.52;98494.52;103683;1317;24271;-29
2021/12/09 06:16:18;;;;;;;42.00;19.80;;;;;;;-3.80;92.71;98504.99;103916;1311;22788;-24
2021/12/09 06:18:44;;;;;;;59.20;24.60;;;;;;;-3.79;92.76;98507.68;104112;1317;22989;-28
2021/12/09 06:21:10;;;;;;;66.60;20.50;;;;;;;-3.72;92.51;98501.88;103742;1316;24178;-27
2021/12/09 06:23:36;;;;;;;42.50;17.20;;;;;;;-3.69;92.35;98502.34;103801;1318;24253;-25
2021/12/09 06:26:03;;;;;;;62.50;19.70;;;;;;;-3.69;92.30;98500.79;103792;1317;22467;-29
2021/12/09 06:28:29;;;;;;;47.80;19.70;;;;;;;-3.70;92.34;98505.56;103908;1317;24144;-29
2021/12/09 06:30:55;;;;;;;57.20;19.80;;;;;;;-3.67;92.33;98511.68;103931;1314;22872;-25
2021/12/09 06:33:21;;;;;;;58.40;18.80;;;;;;;-3.68;92.50;98514.91;103818;1311;24151;-25
2021/12/09 06:35:47;;;;;;;50.70;21.10;;;;;;;-3.69;92.57;98526.80;103962;1317;24138;-29
2021/12/09 06:38:15;;;;;;;51.90;18.00;;;;;;;-3.68;92.67;98539.15;103760;1314;22542;-28
2021/12/09 06:40:41;;;;;;;45.40;17.90;;;;;;;-3.66;92.93;98535.55;103812;1317;24253;-29
2021/12/09 06:43:07;;;;;;;39.40;16.00;;;;;;;-3.62;92.82;98534.54;103950;1305;22853;-25
2021/12/09 06:45:33;;;;;;;43.30;15.40;;;;;;;-3.56;92.79;98529.27;103675;1317;24150;-29
2021/12/09 06:47:59;;;;;;;33.20;14.50;;;;;;;-3.54;92.52;98533.42;103697;1317;23982;-28
2021/12/09 06:50:25;;;;;;;48.00;16.60;;;;;;;-3.56;92.44;98527.97;103634;1317;24218;-29
2021/12/09 06:52:51;;;;;;;73.00;24.70;;;;;;;-3.56;92.58;98535.52;103833;1317;22443;-27
2021/12/09 06:55:18;;;;;;;65.70;31.00;;;;;;;-3.47;92.46;98533.39;103723;1317;22614;-24
2021/12/09 06:57:45;;;;;;;74.10;27.60;;;;;;;-3.43;91.70;98532.71;103695;1317;24128;-29
2021/12/09 07:00:14;;;;;;;38.70;16.10;;;;;;;-3.45;91.43;98535.35;103734;1320;22808;-25
2021/12/09 07:02:39;;;;;;;43.70;16.80;;;;;;;-3.50;91.79;98543.09;103897;1317;22563;-25
2021/12/09 07:05:05;;;;;;;43.00;16.00;;;;;;;-3.48;91.77;98548.88;103744;1317;24136;-25
2021/12/09 07:07:31;;;;;;;54.80;19.20;;;;;;;-3.50;92.70;98555.50;103825;1320;24299;-25
2021/12/09 07:09:57;;;;;;;49.60;19.10;;;;;;;-3.44;92.46;98563.61;103768;1319;24249;-29
2021/12/09 07:12:23;;;;;;;55.90;20.00;;;;;;;-3.41;92.34;98562.60;103683;1320;22560;-25
2021/12/09 07:14:49;;;;;;;51.60;19.80;;;;;;;-3.39;91.93;98569.45;103815;1321;22548;-25
2021/12/09 07:17:16;;;;;;;42.80;16.80;;;;;;;-3.35;92.34;98563.85;103966;1318;22830;-29
2021/12/09 07:19:41;;;;;;;41.80;18.20;;;;;;;-3.33;92.31;98562.44;103824;1317;24138;-29
2021/12/09 07:22:08;;;;;;;46.70;17.60;;;;;;;-3.25;92.25;98568.27;104014;1318;24191;-25
2021/12/09 07:24:35;;;;;;;43.10;17.80;;;;;;;-3.18;92.35;98567.20;103618;1317;22558;-25
2021/12/09 07:27:01;;;;;;;51.30;19.80;;;;;;;-3.06;92.49;98558.98;103910;1320;23919;-29
2021/12/09 07:29:27;;;;;;;56.70;22.00;;;;;;;-2.97;92.06;98550.88;103773;1318;24179;-25
2021/12/09 07:31:53;;;;;;;49.40;18.60;;;;;;;-2.92;91.42;98553.40;103746;1320;24253;-28
2021/12/09 07:34:19;;;;;;;42.10;14.40;;;;;;;-2.96;91.28;98558.77;103702;1312;24210;-25
2021/12/09 07:36:44;;;;;;;49.50;17.70;;;;;;;-2.96;91.46;98554.42;104011;1320;22663;-24
2021/12/09 07:39:10;;;;;;;45.00;17.70;;;;;;;-2.89;91.36;98558.20;103924;1320;23907;-25
2021/12/09 07:41:36;;;;;;;46.10;18.90;;;;;;;-2.88;91.01;98557.89;103541;1317;23796;-29
2021/12/09 07:44:02;;;;;;;49.80;19.30;;;;;;;-2.84;90.95;98555.25;103777;1320;24163;-29
2021/12/09 07:46:29;;;;;;;63.30;21.90;;;;;;;-2.85;90.84;98552.98;104008;1310;24198;-25
2021/12/09 07:48:55;;;;;;;55.10;20.10;;;;;;;-2.83;90.36;98551.39;103988;1314;22462;-29
2021/12/09 07:51:21;;;;;;;47.80;17.30;;;;;;;-2.87;90.23;98558.42;104082;1310;22863;-25
2021/12/09 07:53:47;;;;;;;49.50;16.40;;;;;;;-2.90;90.75;98558.60;104092;1315;22446;-25
2021/12/09 07:56:13;;;;;;;67.10;26.30;;;;;;;-2.87;90.57;98554.70;104038;1314;22437;-25
2021/12/09 07:58:39;;;;;;;76.00;28.20;;;;;;;-2.79;90.41;98550.84;103873;1310;24147;-29
2021/12/09 08:01:05;;;;;;;57.20;25.40;;;;;;;-2.78;89.77;98547.31;103882;1311;22576;-25
2021/12/09 08:03:31;;;;;;;59.50;25.30;;;;;;;-2.81;90.13;98553.31;103853;1313;23828;-29
2021/12/09 08:05:56;;;;;;;75.20;23.80;;;;;;;-2.87;90.45;98557.68;104093;1311;22648;-29
2021/12/09 08:08:22;;;;;;;69.00;23.50;;;;;;;-2.78;90.91;98556.95;104064;1314;24082;-25
2021/12/09 08:10:48;;;;;;;85.90;29.30;;;;;;;-2.68;90.71;98556.61;104076;1313;22467;-25
2021/12/09 08:13:14;;;;;;;90.50;26.90;;;;;;;-2.57;90.81;98559.65;104015;1311;24198;-25
2021/12/09 08:15:45;;;;;;;56.80;20.00;;;;;;;-2.54;90.44;98560.95;103664;1309;24148;-29
2021/12/09 08:20:41;;;;;;;63.50;17.90;;;;;;;-2.49;90.08;98551.02;103814;1314;24159;-25
2021/12/09 08:23:07;;;;;;;54.20;20.30;;;;;;;-2.42;90.00;98559.23;103835;1314;24158;-29
2021/12/09 08:25:33;;;;;;;52.70;15.20;;;;;;;-2.42;89.94;98570.94;103754;1306;22581;-25
2021/12/09 08:27:58;;;;;;;51.60;20.90;;;;;;;-2.33;89.97;98567.00;103754;1314;24141;-25
2021/12/09 08:30:25;;;;;;;71.30;23.40;;;;;;;-2.25;90.19;98571.22;103742;1313;24254;-25
2021/12/09 08:32:53;;;;;;;70.80;19.60;;;;;;;-2.21;90.22;98568.41;103815;1314;24199;-29
2021/12/09 08:35:19;;;;;;;54.30;20.10;;;;;;;-2.08;89.94;98576.20;104121;1314;24135;-27
2021/12/09 08:37:46;;;;;;;109.60;30.70;;;;;;;-1.97;89.64;98583.10;104083;1314;24146;-25
2021/12/09 08:40:13;;;;;;;50.10;21.10;;;;;;;-1.88;89.28;98575.59;103677;1314;24147;-29
2021/12/09 08:42:39;;;;;;;62.60;22.40;;;;;;;-1.91;88.47;98574.27;103772;1314;24153;-29
2021/12/09 08:45:08;;;;;;;75.20;20.70;;;;;;;-2.00;88.81;98574.55;103633;1313;24145;-28
2021/12/09 08:47:35;;;;;;;59.60;23.40;;;;;;;-2.01;88.78;98576.27;103723;1314;22594;-25
2021/12/09 08:50:01;;;;;;;55.50;25.40;;;;;;;-2.06;88.68;98588.26;103620;1314;24272;-29
2021/12/09 08:52:26;;;;;;;56.00;24.20;;;;;;;-2.05;88.43;98588.23;103820;1314;22769;-29
2021/12/09 08:54:52;;;;;;;54.40;26.10;;;;;;;-2.09;88.21;98582.70;103837;1313;24160;-25
2021/12/09 08:57:20;;;;;;;69.40;24.10;;;;;;;-2.14;88.12;98577.08;104072;1314;24173;-25
2021/12/09 08:59:46;;;;;;;69.20;22.20;;;;;;;-2.20;88.28;98573.59;104049;1313;22463;-25
2021/12/09 09:02:14;;;;;;;63.40;18.90;;;;;;;-2.20;88.90;98580.89;103659;1312;24266;-25
2021/12/09 09:04:39;;;;;;;57.20;20.30;;;;;;;-2.17;88.71;98581.54;103715;1314;24151;-25
2021/12/09 09:07:06;;;;;;;49.30;20.60;;;;;;;-2.14;88.35;98577.75;103851;1314;24132;-29
2021/12/09 09:09:34;;;;;;;64.80;20.60;;;;;;;-2.17;88.41;98580.15;104314;1316;22536;-25
2021/12/09 09:12:01;;;;;;;54.80;19.00;;;;;;;-2.17;88.51;98575.55;104102;1316;24158;-29
2021/12/09 09:14:27;;;;;;;67.50;22.20;;;;;;;-2.17;88.40;98569.81;104083;1313;24173;-29
2021/12/09 09:16:53;;;;;;;61.50;20.30;;;;;;;-2.16;88.26;98567.02;104061;1308;22480;-29
2021/12/09 09:19:19;;;;;;;64.10;21.20;;;;;;;-2.12;88.29;98564.58;104012;1315;24196;-25
2021/12/09 09:21:44;;;;;;;61.50;25.90;;;;;;;-2.04;87.98;98563.16;103922;1315;24255;-25
2021/12/09 09:24:12;;;;;;;79.00;24.10;;;;;;;-2.00;88.06;98569.71;103919;1314;23240;-29
2021/12/09 09:26:38;;;;;;;130.60;48.60;;;;;;;-1.88;87.88;98572.12;103751;1313;24151;-29
2021/12/09 09:29:04;;;;;;;102.60;42.70;;;;;;;-1.81;88.01;98583.20;103725;1316;24097;-25
2021/12/09 09:31:32;;;;;;;109.20;47.80;;;;;;;-1.71;87.88;98582.81;103736;1314;24144;-29
2021/12/09 09:34:01;;;;;;;163.00;62.80;;;;;;;-1.73;88.02;98578.99;103812;1314;24158;-25
2021/12/09 09:36:27;;;;;;;115.80;46.20;;;;;;;-1.65;87.45;98568.21;103749;1317;22437;-29
2021/12/09 09:38:59;;;;;;;98.70;34.40;;;;;;;-1.64;87.18;98568.04;103647;1309;24250;-29
2021/12/09 09:41:31;;;;;;;130.70;50.20;;;;;;;-1.61;86.89;98577.44;104081;1314;24134;-25
2021/12/09 09:44:09;;;;;;;87.20;34.90;;;;;;;-1.61;86.73;98563.21;104234;1315;22545;-25
2021/12/09 09:46:34;;;;;;;97.10;34.60;;;;;;;-1.54;86.40;98553.57;103947;1316;25296;-30
2021/12/09 09:49:03;;;;;;;68.70;23.70;;;;;;;-1.51;86.19;98548.73;104227;1306;24258;-25
2021/12/09 09:51:29;;;;;;;85.90;28.20;;;;;;;-1.50;86.02;98544.27;104199;1310;25370;-25
2021/12/09 09:53:56;;;;;;;56.50;22.40;;;;;;;-1.51;85.92;98533.77;103876;1314;24199;-25
2021/12/09 09:56:23;;;;;;;54.40;21.90;;;;;;;-1.53;85.81;98527.35;104113;1314;22462;-29
2021/12/09 09:58:56;;;;;;;70.40;22.10;;;;;;;-1.53;86.00;98521.73;103925;1317;22822;-29
2021/12/09 10:01:23;;;;;;;57.80;22.50;;;;;;;-1.63;85.78;98527.20;104138;1314;22508;-25
2021/12/09 10:03:49;;;;;;;65.10;23.90;;;;;;;-1.69;86.44;98532.50;103790;1313;22439;-25
2021/12/09 10:06:15;;;;;;;53.20;20.60;;;;;;;-1.71;86.64;98540.01;103690;1314;24261;-25
2021/12/09 10:08:41;;;;;;;74.30;22.00;;;;;;;-1.71;87.35;98540.56;103781;1313;24097;-24
2021/12/09 10:11:07;;;;;;;56.70;21.40;;;;;;;-1.62;87.94;98529.19;103783;1313;25825;-25
2021/12/09 10:13:35;;;;;;;43.00;18.20;;;;;;;-1.52;87.01;98519.19;103790;1314;24262;-26
2021/12/09 10:16:01;;;;;;;44.80;17.00;;;;;;;-1.54;86.78;98517.41;103852;1313;22455;-25
2021/12/09 10:18:32;;;;;;;36.70;17.70;;;;;;;-1.47;86.77;98512.40;103886;1315;24296;-29
2021/12/09 10:20:59;;;;;;;44.70;17.70;;;;;;;-1.44;86.65;98514.69;104220;1314;22485;-30
2021/12/09 10:23:28;;;;;;;58.80;22.60;;;;;;;-1.41;86.79;98512.15;103570;1314;22717;-29
2021/12/09 10:26:03;;;;;;;55.90;21.60;;;;;;;-1.38;85.91;98508.01;103806;1314;24177;-25
2021/12/09 10:28:28;;;;;;;81.00;29.10;;;;;;;-1.46;86.52;98510.56;103714;1316;22649;-25
2021/12/09 10:31:08;;;;;;;77.50;27.50;;;;;;;-1.42;86.87;98502.61;103686;1314;24132;-29
2021/12/09 10:34:00;;;;;;;88.40;31.80;;;;;;;-1.36;87.19;98507.73;103510;1311;24186;-29
2021/12/09 10:36:32;;;;;;;113.60;36.00;;;;;;;-1.34;87.04;98515.44;103733;1315;24102;-29
2021/12/09 10:39:05;;;;;;;84.70;28.40;;;;;;;-1.33;87.04;98511.67;103588;1316;22497;-29
2021/12/09 10:41:32;;;;;;;77.60;25.60;;;;;;;-1.32;87.49;98506.05;103743;1314;26036;-29
2021/12/09 10:43:58;;;;;;;67.90;22.40;;;;;;;-1.28;87.35;98503.64;103720;1314;24303;-25
2021/12/09 10:46:31;;;;;;;79.50;28.20;;;;;;;-1.25;87.58;98502.08;103849;1316;24577;-25
2021/12/09 10:49:12;;;;;;;69.00;23.30;;;;;;;-1.20;87.65;98505.44;103803;1311;22557;-25
2021/12/09 10:51:44;;;;;;;101.10;34.30;;;;;;;-1.17;87.69;98510.45;103624;1315;23794;-29
2021/12/09 10:54:10;;;;;;;153.30;48.90;;;;;;;-1.14;87.72;98503.31;103735;1314;24144;-29
2021/12/09 10:56:36;;;;;;;149.70;49.20;;;;;;;-1.03;87.83;98504.61;103693;1307;25276;-29
2021/12/09 10:59:02;;;;;;;81.90;27.50;;;;;;;-0.94;87.96;98507.46;103695;1313;24210;-29
2021/12/09 11:01:28;;;;;;;70.70;26.80;;;;;;;-0.84;88.10;98510.38;103718;1314;24599;-29
2021/12/09 11:03:58;;;;;;;89.20;32.30;;;;;;;-0.71;87.91;98500.33;103730;1306;24272;-26
2021/12/09 11:06:30;;;;;;;84.50;29.60;;;;;;;-0.65;87.91;98489.74;103846;1314;24201;-29
2021/12/09 11:08:57;;;;;;;64.30;26.00;;;;;;;-0.67;87.49;98490.45;103612;1314;24463;-26
2021/12/09 11:11:28;;;;;;;79.70;25.80;;;;;;;-0.70;87.12;98484.91;103787;1314;24771;-25